Meteorología y climatología de Navarra
Datos de la estación - Meteo Navarra

Estación de Getadar GN

Altitud 710 m.


Datos desde el 14/08/2019 hasta el 15/08/2019 en horario solar
Los datos son PROVISIONALES

Anterior Página 1 de 1 Siguiente Descargar: Formato para Excel 2000 o superior   Formato csv   Formato para OpenOffice Calc
Fecha Temperatura Humedad relativa Radiación global Insolación Precipitación Vel. viento 10 m Vel. viento 10 m Dir. viento 10 m
ºC % W/m² s l/m² m/s km/h º
14/08/2019 0:00 12.1 72 0.0 0 0.0 1.8 6.4 358
14/08/2019 0:10 11.7 75 0.0 0 0.0 1.5 5.3 8
14/08/2019 0:20 11.2 79 0.0 0 0.0 1.7 6.1 14
14/08/2019 0:30 11.3 80 0.0 0 0.0 2.1 7.7 16
14/08/2019 0:40 11.6 79 0.0 0 0.0 2.2 7.9 8
14/08/2019 0:50 11.5 78 0.0 0 0.0 2.4 8.5 11
14/08/2019 1:00 11.5 77 0.0 0 0.0 2.2 8.0 16
14/08/2019 1:10 11.8 74 0.0 0 0.0 1.1 3.8 13
14/08/2019 1:20 11.7 74 0.0 0 0.0 1.4 5.0 20
14/08/2019 1:30 12.1 70 0.0 0 0.0 1.7 5.9 15
14/08/2019 1:40 12.2 68 0.0 0 0.0 1.4 5.0 15
14/08/2019 1:50 12.5 66 0.0 0 0.0 1.5 5.3 360
14/08/2019 2:00 12.6 66 0.0 0 0.0 0.8 2.8 339
14/08/2019 2:10 12.8 63 0.0 0 0.0 0.6 2.2 341
14/08/2019 2:20 13.4 59 0.0 0 0.0 1.1 4.1 356
14/08/2019 2:30 13.1 61 0.0 0 0.0 1.4 4.9 6
14/08/2019 2:40 12.2 64 0.0 0 0.0 1.2 4.1 359
14/08/2019 2:50 12.1 65 0.0 0 0.0 0.8 2.9 349
14/08/2019 3:00 11.9 65 0.0 0 0.0 1.1 3.9 2
14/08/2019 3:10 11.7 67 0.0 0 0.0 1.5 5.4 2
14/08/2019 3:20 11.5 66 0.0 0 0.0 1.3 4.6 6
14/08/2019 3:30 11.4 67 0.0 0 0.0 1.3 4.5 3
14/08/2019 3:40 11.1 67 0.0 0 0.0 1.2 4.2 341
14/08/2019 3:50 11.0 66 0.0 0 0.0 0.9 3.1 323
14/08/2019 4:00 10.9 67 0.0 0 0.0 0.3 1.1 2
14/08/2019 4:10 10.6 67 0.0 0 0.0 1.2 4.4 359
14/08/2019 4:20 10.2 69 0.0 0 0.0 1.7 6.0 1
14/08/2019 4:30 10.1 69 0.0 0 0.0 1.7 6.2 3
14/08/2019 4:40 10.2 68 0.0 0 0.0 0.8 2.8 3
14/08/2019 4:50 10.8 65 0.0 0 0.0 0.6 2.0 21
14/08/2019 5:00 10.8 65 0.0 0 0.0 1.1 3.9 4
14/08/2019 5:10 10.6 66 0.0 0 0.0 1.4 4.9 6
14/08/2019 5:20 10.7 64 15.5 0 0.0 1.2 4.2 1
14/08/2019 5:30 10.7 63 23.5 0 0.0 1.2 4.2 349
14/08/2019 5:40 11.4 57 28.2 0 0.0 0.3 0.9 347
14/08/2019 5:50 11.8 60 40.5 94 0.0 0.4 1.6 171
14/08/2019 6:00 11.4 64 45.6 40 0.0 0.7 2.3 171
14/08/2019 6:10 11.0 66 116.3 600 0.0 0.3 1.2 166
14/08/2019 6:20 11.2 65 144.5 600 0.0 0.6 2.1 14
14/08/2019 6:30 11.2 66 173.6 600 0.0 0.4 1.3 8
14/08/2019 6:40 11.8 65 203.2 600 0.0 0.1 0.2 358
14/08/2019 6:50 12.3 65 232.8 600 0.0 0.0 0.0 71
14/08/2019 7:00 12.6 67 265.1 600 0.0 0.2 0.8 191
14/08/2019 7:10 12.7 66 296.6 600 0.0 0.0 0.1 210
14/08/2019 7:20 13.3 67 328.6 600 0.0 0.3 1.2 161
14/08/2019 7:30 13.9 66 361.4 600 0.0 0.3 1.2 157
14/08/2019 7:40 14.4 65 393.7 600 0.0 0.9 3.1 161
14/08/2019 7:50 14.9 63 425.3 600 0.0 0.4 1.3 161
14/08/2019 8:00 15.4 63 456.7 600 0.0 1.0 3.6 163
14/08/2019 8:10 16.2 63 487.7 600 0.0 0.7 2.7 143
14/08/2019 8:20 16.7 63 517.1 600 0.0 0.3 1.1 153
14/08/2019 8:30 17.3 59 546.3 600 0.0 0.5 1.8 159
14/08/2019 8:40 17.7 60 575.0 600 0.0 0.8 2.7 175
14/08/2019 8:50 18.1 57 602.5 600 0.0 0.7 2.4 200
14/08/2019 9:00 19.3 56 629.6 600 0.0 0.5 1.6 134
14/08/2019 9:10 20.0 54 656.6 600 0.0 0.9 3.2 152
14/08/2019 9:20 20.9 49 682.0 600 0.0 1.0 3.7 142
14/08/2019 9:30 20.8 50 706.4 600 0.0 1.2 4.2 135
14/08/2019 9:40 20.6 51 729.4 600 0.0 1.3 4.5 133
14/08/2019 9:50 21.1 49 752.2 600 0.0 0.9 3.3 136
14/08/2019 10:00 21.8 47 772.3 600 0.0 0.8 2.7 140
14/08/2019 10:10 22.5 45 790.4 600 0.0 0.6 2.1 137
14/08/2019 10:20 22.8 42 811.0 600 0.0 0.7 2.4 137
14/08/2019 10:30 22.7 42 824.0 600 0.0 1.0 3.5 179
14/08/2019 10:40 23.2 38 874.0 600 0.0 1.1 4.0 231
14/08/2019 10:50 24.3 33 896.0 600 0.0 1.5 5.3 270
14/08/2019 11:00 24.4 33 889.0 600 0.0 0.8 2.9 39
14/08/2019 11:10 25.3 32 918.0 600 0.0 1.4 4.9 38
14/08/2019 11:20 25.6 33 1004.0 600 0.0 1.5 5.4 11
14/08/2019 11:30 25.3 32 989.0 600 0.0 2.1 7.6 354
14/08/2019 11:40 25.1 32 944.0 600 0.0 1.9 6.9 359
14/08/2019 11:50 25.0 32 914.0 600 0.0 2.6 9.3 16
14/08/2019 12:00 25.5 33 912.0 600 0.0 1.6 5.9 2
14/08/2019 12:10 25.6 33 915.0 600 0.0 3.6 13.0 344
14/08/2019 12:20 25.7 33 914.0 600 0.0 2.7 9.6 12
14/08/2019 12:30 25.9 33 911.0 600 0.0 2.4 8.6 14
14/08/2019 12:40 25.8 34 907.0 600 0.0 2.5 9.1 351
14/08/2019 12:50 26.1 34 906.0 600 0.0 3.2 11.4 352
14/08/2019 13:00 26.0 33 905.0 600 0.0 4.5 16.1 347
14/08/2019 13:10 25.9 34 910.0 600 0.0 3.3 11.7 347
14/08/2019 13:20 25.9 34 711.8 432 0.0 3.3 11.8 348
14/08/2019 13:30 25.9 35 919.0 600 0.0 4.2 15.2 324
14/08/2019 13:40 26.0 35 818.0 600 0.0 2.9 10.3 337
14/08/2019 13:50 26.7 34 909.0 600 0.0 3.3 11.9 2
14/08/2019 14:00 26.7 35 849.0 600 0.0 3.4 12.3 340
14/08/2019 14:10 26.4 36 826.0 600 0.0 4.0 14.2 352
14/08/2019 14:20 26.5 36 797.7 600 0.0 3.8 13.8 357
14/08/2019 14:30 26.4 36 778.4 600 0.0 3.6 12.8 353
14/08/2019 14:40 26.4 36 757.0 600 0.0 3.2 11.4 352
14/08/2019 14:50 26.4 36 735.4 600 0.0 3.7 13.2 356
14/08/2019 15:00 26.5 36 711.4 600 0.0 3.4 12.2 10
14/08/2019 15:10 26.3 37 688.2 600 0.0 3.7 13.4 338
14/08/2019 15:20 26.0 38 662.5 600 0.0 3.7 13.1 348
14/08/2019 15:30 26.0 39 635.1 600 0.0 3.7 13.4 359
14/08/2019 15:40 26.3 40 607.6 600 0.0 2.6 9.4 348
14/08/2019 15:50 26.1 40 578.1 600 0.0 2.9 10.6 3
14/08/2019 16:00 25.6 41 550.1 600 0.0 4.0 14.3 5
14/08/2019 16:10 25.0 42 520.9 600 0.0 4.6 16.6 346
14/08/2019 16:20 24.7 43 490.1 600 0.0 4.2 15.0 0
14/08/2019 16:30 24.4 43 458.9 600 0.0 4.3 15.5 4
14/08/2019 16:40 24.0 43 428.4 600 0.0 4.2 15.0 357
14/08/2019 16:50 23.8 43 398.4 600 0.0 4.9 17.5 354
14/08/2019 17:00 23.6 43 368.4 600 0.0 5.0 18.1 350
14/08/2019 17:10 23.3 44 333.1 600 0.0 5.1 18.2 353
14/08/2019 17:20 23.1 44 289.1 600 0.0 4.9 17.6 354
14/08/2019 17:30 22.8 45 282.5 600 0.0 5.0 17.9 353
14/08/2019 17:40 22.6 47 239.9 600 0.0 5.0 18.0 351
14/08/2019 17:50 22.3 48 211.6 600 0.0 4.7 16.9 345
14/08/2019 18:00 21.9 50 180.1 600 0.0 5.8 20.7 342
14/08/2019 18:10 21.4 53 149.1 600 0.0 4.8 17.2 347
14/08/2019 18:20 21.0 55 121.6 600 0.0 5.0 18.1 348
14/08/2019 18:30 20.6 58 89.7 536 0.0 5.4 19.3 351
14/08/2019 18:40 20.3 59 69.8 600 0.0 5.1 18.4 349
14/08/2019 18:50 20.0 61 36.0 232 0.0 4.9 17.7 352
14/08/2019 19:00 19.7 63 22.1 0 0.0 5.0 18.1 355
14/08/2019 19:10 19.5 64 14.5 0 0.0 4.3 15.6 2
14/08/2019 19:20 19.3 65 0.0 0 0.0 4.2 15.2 360
14/08/2019 19:30 19.0 66 0.0 0 0.0 3.9 13.9 3
14/08/2019 19:40 18.7 68 0.0 0 0.0 3.8 13.5 1
14/08/2019 19:50 18.5 68 0.0 0 0.0 2.7 9.8 3
14/08/2019 20:00 18.5 69 0.0 0 0.0 2.1 7.5 326
14/08/2019 20:10 18.3 70 0.0 0 0.0 3.0 10.8 354
14/08/2019 20:20 18.1 71 0.0 0 0.0 2.7 9.9 353
14/08/2019 20:30 17.9 72 0.0 0 0.0 2.4 8.6 354
14/08/2019 20:40 17.8 72 0.0 0 0.0 2.1 7.5 330
14/08/2019 20:50 17.6 72 0.0 0 0.0 3.5 12.7 358
14/08/2019 21:00 17.5 72 0.0 0 0.0 4.3 15.3 0
14/08/2019 21:10 17.4 73 0.0 0 0.0 5.0 17.9 4
14/08/2019 21:20 17.4 74 0.0 0 0.0 4.9 17.5 1
14/08/2019 21:30 17.3 74 0.0 0 0.0 4.9 17.8 2
14/08/2019 21:40 17.3 76 0.0 0 0.0 4.9 17.7 5
14/08/2019 21:50 17.4 77 0.0 0 0.0 4.3 15.3 7
14/08/2019 22:00 17.3 77 0.0 0 0.0 4.6 16.7 3
14/08/2019 22:10 17.2 78 0.0 0 0.0 4.2 15.0 7
14/08/2019 22:20 17.1 78 0.0 0 0.0 4.1 14.8 2
14/08/2019 22:30 17.0 79 0.0 0 0.0 4.3 15.4 359
14/08/2019 22:40 17.1 80 0.0 0 0.0 4.4 15.8 355
14/08/2019 22:50 17.0 81 0.0 0 0.0 3.6 13.1 353
14/08/2019 23:00 17.0 83 0.0 0 0.0 2.7 9.7 4
14/08/2019 23:10 17.0 84 0.0 0 0.0 2.4 8.5 330
14/08/2019 23:20 17.1 85 0.0 0 0.0 2.1 7.6 338
14/08/2019 23:30 17.1 85 0.0 0 0.0 3.1 11.0 344
14/08/2019 23:40 17.1 85 0.0 0 0.0 3.5 12.7 355
14/08/2019 23:50 17.1 85 0.0 0 0.0 4.1 14.7 359
Anterior Página 1 de 1 Siguiente

NOTA: Tipo de datos según el color:
   - Valores diarios o 10 minutos correctos
   - Valores diarios calculados a partir de un número de datos 10 minutos menor que 144 y mayor que 120, o de un número de datos semihorarios menor que 48 y mayor que 40 (caso de las estaciones de Riegos de Navarra y del MARM)
   - Valores diez minutos estimados


Contacto        Enlaces        Aviso legal